Meteorología y climatología de Navarra
Datos de la estación - Meteo Navarra

Estación de Estella GN

Altitud 486 m.


Datos desde el 15/01/2020 hasta el 16/01/2020 en horario solar
Los datos son PROVISIONALES

Anterior Página 1 de 1 Siguiente Descargar: Formato para Excel 2000 o superior   Formato csv   Formato para OpenOffice Calc
Fecha Temperatura Humedad relativa Radiación global Insolación Precipitación Vel. viento 10 m Vel. viento 10 m Dir. viento 10 m
ºC % W/m² s l/m² m/s km/h º
15/01/2020 0:00 1.3 84 0.0 0 0.0 1.8 6.6 58
15/01/2020 0:10 1.4 83 0.0 0 0.0 0.8 2.8 56
15/01/2020 0:20 0.8 85 0.0 0 0.0 0.2 0.5 67
15/01/2020 0:30 0.7 88 0.0 0 0.0 0.6 2.2 45
15/01/2020 0:40 1.0 86 0.0 0 0.0 0.9 3.3 356
15/01/2020 0:50 1.0 87 0.0 0 0.0 0.6 2.0 40
15/01/2020 1:00 1.1 87 0.0 0 0.0 1.3 4.8 80
15/01/2020 1:10 1.9 82 0.0 0 0.0 1.4 4.9 88
15/01/2020 1:20 2.3 79 0.0 0 0.0 1.3 4.8 65
15/01/2020 1:30 2.4 80 0.0 0 0.0 0.8 3.0 131
15/01/2020 1:40 2.0 81 0.0 0 0.0 0.4 1.3 161
15/01/2020 1:50 2.3 80 0.0 0 0.0 1.1 4.0 78
15/01/2020 2:00 2.4 80 0.0 0 0.0 0.8 2.9 51
15/01/2020 2:10 2.6 79 0.0 0 0.0 1.0 3.7 65
15/01/2020 2:20 2.8 78 0.0 0 0.0 1.0 3.5 68
15/01/2020 2:30 2.8 78 0.0 0 0.0 1.3 4.6 103
15/01/2020 2:40 2.9 77 0.0 0 0.0 1.2 4.4 81
15/01/2020 2:50 3.1 77 0.0 0 0.0 0.8 3.0 98
15/01/2020 3:00 2.9 78 0.0 0 0.0 0.6 2.3 88
15/01/2020 3:10 3.1 77 0.0 0 0.0 1.1 3.8 87
15/01/2020 3:20 3.0 77 0.0 0 0.0 1.0 3.7 68
15/01/2020 3:30 3.0 77 0.0 0 0.0 1.1 4.1 94
15/01/2020 3:40 3.1 77 0.0 0 0.0 1.3 4.8 75
15/01/2020 3:50 3.2 77 0.0 0 0.0 1.0 3.7 71
15/01/2020 4:00 3.4 76 0.0 0 0.0 1.0 3.6 116
15/01/2020 4:10 3.4 77 0.0 0 0.0 2.6 9.5 56
15/01/2020 4:20 3.4 76 0.0 0 0.0 3.2 11.6 59
15/01/2020 4:30 3.5 76 0.0 0 0.0 2.3 8.2 53
15/01/2020 4:40 3.4 76 0.0 0 0.0 1.6 5.6 58
15/01/2020 4:50 3.4 76 0.0 0 0.0 1.9 6.9 69
15/01/2020 5:00 3.1 78 0.0 0 0.0 0.9 3.1 86
15/01/2020 5:10 3.4 77 0.0 0 0.0 1.7 6.2 72
15/01/2020 5:20 3.5 76 0.0 0 0.0 1.6 5.6 68
15/01/2020 5:30 3.4 77 0.0 0 0.0 1.3 4.6 76
15/01/2020 5:40 3.2 78 0.0 0 0.0 1.2 4.4 77
15/01/2020 5:50 3.3 78 0.0 0 0.0 1.1 4.0 73
15/01/2020 6:00 3.6 77 0.0 0 0.0 1.0 3.5 80
15/01/2020 6:10 3.3 77 0.0 0 0.0 0.7 2.5 93
15/01/2020 6:20 3.1 80 0.0 0 0.0 0.7 2.6 139
15/01/2020 6:30 2.5 81 0.0 0 0.0 1.0 3.5 62
15/01/2020 6:40 2.9 81 0.0 0 0.0 1.4 5.1 63
15/01/2020 6:50 3.2 79 0.0 0 0.0 1.2 4.3 66
15/01/2020 7:00 2.6 81 0.0 0 0.0 0.4 1.6 108
15/01/2020 7:10 2.0 83 0.0 0 0.0 0.5 1.8 146
15/01/2020 7:20 1.9 86 0.0 0 0.0 0.3 1.2 165
15/01/2020 7:30 2.4 85 0.0 0 0.0 0.5 1.7 151
15/01/2020 7:40 2.8 82 0.0 0 0.0 0.2 0.7 176
15/01/2020 7:50 2.8 83 5.2 0 0.0 0.5 1.9 74
15/01/2020 8:00 3.5 82 29.7 258 0.0 0.7 2.5 117
15/01/2020 8:10 4.0 79 24.7 0 0.0 0.8 3.0 114
15/01/2020 8:20 4.4 77 23.3 0 0.0 1.0 3.7 122
15/01/2020 8:30 4.2 78 25.9 0 0.0 0.6 2.2 146
15/01/2020 8:40 4.4 77 22.4 0 0.0 0.7 2.6 191
15/01/2020 8:50 4.0 80 18.4 0 0.0 0.5 1.6 240
15/01/2020 9:00 3.9 81 23.0 0 0.0 0.2 0.8 93
15/01/2020 9:10 4.3 79 28.9 0 0.0 0.3 0.9 187
15/01/2020 9:20 4.4 79 32.0 0 0.0 0.5 1.8 196
15/01/2020 9:30 4.4 80 31.5 0 0.0 0.4 1.5 284
15/01/2020 9:40 4.7 79 32.0 0 0.0 1.0 3.5 2
15/01/2020 9:50 5.1 76 30.0 0 0.0 1.4 5.1 71
15/01/2020 10:00 5.3 74 41.9 0 0.0 1.2 4.4 81
15/01/2020 10:10 5.4 74 50.5 0 0.0 0.6 2.3 89
15/01/2020 10:20 5.4 73 58.7 0 0.0 1.2 4.4 86
15/01/2020 10:30 5.4 73 76.8 0 0.0 1.1 3.8 78
15/01/2020 10:40 5.6 73 116.3 0 0.0 1.2 4.4 101
15/01/2020 10:50 5.6 73 131.6 0 0.0 1.3 4.6 116
15/01/2020 11:00 5.8 72 140.4 0 0.0 2.5 8.9 41
15/01/2020 11:10 6.0 72 132.6 0 0.0 3.4 12.1 67
15/01/2020 11:20 6.0 72 158.7 0 0.0 2.4 8.6 55
15/01/2020 11:30 6.3 71 176.0 0 0.0 2.4 8.5 60
15/01/2020 11:40 6.7 70 178.2 16 0.0 2.5 8.9 67
15/01/2020 11:50 6.8 69 137.4 0 0.0 1.5 5.2 64
15/01/2020 12:00 6.8 69 132.5 0 0.0 1.5 5.3 66
15/01/2020 12:10 6.8 70 124.7 0 0.0 1.2 4.4 92
15/01/2020 12:20 6.8 70 103.3 0 0.0 0.7 2.6 90
15/01/2020 12:30 6.8 70 112.7 0 0.0 0.6 2.1 91
15/01/2020 12:40 6.9 70 124.7 0 0.0 1.1 4.1 56
15/01/2020 12:50 6.9 70 130.2 0 0.0 1.1 3.8 90
15/01/2020 13:00 7.1 70 166.1 0 0.0 0.5 1.7 125
15/01/2020 13:10 7.4 70 250.3 448 0.0 1.0 3.5 53
15/01/2020 13:20 7.7 68 201.9 12 0.0 1.2 4.1 41
15/01/2020 13:30 8.1 67 325.5 522 0.0 0.9 3.3 78
15/01/2020 13:40 8.6 66 435.8 600 0.0 1.1 3.9 80
15/01/2020 13:50 8.9 64 225.9 204 0.0 1.2 4.4 35
15/01/2020 14:00 8.3 66 154.5 0 0.0 1.5 5.3 52
15/01/2020 14:10 8.3 67 199.5 242 0.0 1.2 4.3 55
15/01/2020 14:20 8.7 66 352.7 600 0.0 1.2 4.4 65
15/01/2020 14:30 8.9 65 151.0 60 0.0 1.3 4.7 54
15/01/2020 14:40 8.7 66 116.9 0 0.0 0.8 2.9 57
15/01/2020 14:50 8.8 66 154.7 88 0.0 0.8 3.0 49
15/01/2020 15:00 8.9 66 111.9 0 0.0 1.6 5.6 50
15/01/2020 15:10 8.7 67 129.4 86 0.0 1.2 4.1 73
15/01/2020 15:20 9.0 66 161.1 600 0.0 1.3 4.5 35
15/01/2020 15:30 9.1 65 129.1 468 0.0 1.3 4.7 69
15/01/2020 15:40 8.8 66 108.7 226 0.0 1.0 3.5 63
15/01/2020 15:50 9.0 66 112.6 594 0.0 1.3 4.6 22
15/01/2020 16:00 9.0 65 79.9 120 0.0 1.0 3.5 72
15/01/2020 16:10 8.9 66 68.0 238 0.0 0.7 2.3 106
15/01/2020 16:20 9.0 66 75.8 600 0.0 0.8 3.0 78
15/01/2020 16:30 9.1 66 55.1 584 0.0 1.2 4.1 25
15/01/2020 16:40 8.9 67 29.5 230 0.0 0.1 0.3 42
15/01/2020 16:50 8.4 70 8.4 0 0.0 0.9 3.3 145
15/01/2020 17:00 8.1 71 0.0 0 0.0 1.4 4.9 31
15/01/2020 17:10 7.9 71 0.0 0 0.0 0.7 2.6 87
15/01/2020 17:20 7.7 72 0.0 0 0.0 1.0 3.6 99
15/01/2020 17:30 7.4 73 0.0 0 0.0 0.8 2.8 359
15/01/2020 17:40 7.7 71 0.0 0 0.0 1.0 3.5 230
15/01/2020 17:50 7.2 76 0.0 0 0.0 0.2 0.6 187
15/01/2020 18:00 7.0 76 0.0 0 0.0 1.2 4.2 1
15/01/2020 18:10 6.3 77 0.0 0 0.0 0.7 2.5 93
15/01/2020 18:20 6.5 76 0.0 0 0.0 1.2 4.2 83
15/01/2020 18:30 5.7 79 0.0 0 0.0 0.6 2.0 117
15/01/2020 18:40 5.8 80 0.0 0 0.0 0.9 3.3 83
15/01/2020 18:50 5.6 82 0.0 0 0.0 0.1 0.5 20
15/01/2020 19:00 5.4 81 0.0 0 0.0 1.3 4.6 64
15/01/2020 19:10 5.4 81 0.0 0 0.0 0.5 1.8 0
15/01/2020 19:20 5.2 83 0.0 0 0.0 1.2 4.2 10
15/01/2020 19:30 4.8 85 0.0 0 0.0 0.3 1.2 259
15/01/2020 19:40 5.1 84 0.0 0 0.0 0.7 2.3 351
15/01/2020 19:50 4.3 85 0.0 0 0.0 1.0 3.7 348
15/01/2020 20:00 4.0 90 0.0 0 0.0 1.5 5.3 4
15/01/2020 20:10 4.2 89 0.0 0 0.0 1.2 4.3 337
15/01/2020 20:20 4.0 90 0.0 0 0.0 1.1 4.0 7
15/01/2020 20:30 4.4 88 0.0 0 0.0 0.4 1.4 39
15/01/2020 20:40 3.4 89 0.0 0 0.0 0.0 0.1 298
15/01/2020 20:50 2.9 93 0.0 0 0.0 0.3 1.2 288
15/01/2020 21:00 3.0 95 0.0 0 0.0 0.9 3.1 344
15/01/2020 21:10 3.1 95 0.0 0 0.0 0.3 1.0 324
15/01/2020 21:20 2.7 95 0.0 0 0.0 0.5 1.6 63
15/01/2020 21:30 2.3 95 0.0 0 0.0 0.2 0.7 121
15/01/2020 21:40 2.3 97 0.0 0 0.0 0.4 1.3 338
15/01/2020 21:50 2.4 97 0.0 0 0.0 0.2 0.9 5
15/01/2020 22:00 2.1 97 0.0 0 0.0 0.1 0.3 328
15/01/2020 22:10 2.0 97 0.0 0 0.0 0.4 1.3 328
15/01/2020 22:20 1.9 97 0.0 0 0.0 0.7 2.3 31
15/01/2020 22:30 1.5 97 0.0 0 0.0 0.2 0.7 60
15/01/2020 22:40 1.5 97 0.0 0 0.0 0.1 0.2 35
15/01/2020 22:50 1.5 97 0.0 0 0.0 0.2 0.8 21
15/01/2020 23:00 1.8 97 0.0 0 0.0 0.5 1.9 45
15/01/2020 23:10 1.5 97 0.0 0 0.0 0.2 0.8 324
15/01/2020 23:20 1.6 97 0.0 0 0.0 0.4 1.4 295
15/01/2020 23:30 1.3 97 0.0 0 0.0 0.2 0.8 44
15/01/2020 23:40 1.4 97 0.0 0 0.0 0.5 1.9 18
15/01/2020 23:50 1.1 97 0.0 0 0.0 0.2 0.7 297
Anterior Página 1 de 1 Siguiente

NOTA: Tipo de datos según el color:
   - Valores diarios o 10 minutos correctos
   - Valores diarios calculados a partir de un número de datos 10 minutos menor que 144 y mayor que 120, o de un número de datos semihorarios menor que 48 y mayor que 40 (caso de las estaciones de Riegos de Navarra y del MARM)
   - Valores diez minutos estimados


Contacto        Enlaces        Aviso legal